createdAt,value
2022-11-04T00:01:46.727Z,26.87
2022-11-04T00:04:17.138Z,29.40
2022-11-04T00:06:44.136Z,27.10
2022-11-04T00:09:16.242Z,26.87
2022-11-04T00:12:01.428Z,30.33
2022-11-04T00:14:30.518Z,32.50
2022-11-04T00:17:17.219Z,32.77
2022-11-04T00:20:02.564Z,28.40
2022-11-04T00:22:48.396Z,24.93
2022-11-04T00:25:34.143Z,25.23
2022-11-04T00:28:31.727Z,30.93
2022-11-04T00:31:23.120Z,28.97
2022-11-04T00:33:52.670Z,23.87
2022-11-04T00:36:20.212Z,29.50
2022-11-04T00:38:47.387Z,28.17
2022-11-04T00:41:26.683Z,28.03
2022-11-04T00:44:07.485Z,29.33
2022-11-04T00:46:35.095Z,25.90
2022-11-04T00:49:02.101Z,27.40
2022-11-04T00:51:29.232Z,29.43
2022-11-04T00:53:58.180Z,27.83
2022-11-04T00:56:25.264Z,30.47
2022-11-04T00:58:52.277Z,24.87
2022-11-04T01:01:20.234Z,32.00
2022-11-04T01:03:50.191Z,27.00
2022-11-04T01:06:18.730Z,26.53
2022-11-04T01:08:46.319Z,24.17
2022-11-04T01:11:13.939Z,25.73
2022-11-04T01:13:41.332Z,24.90
2022-11-04T01:16:11.188Z,30.10
2022-11-04T01:18:39.672Z,26.13
2022-11-04T01:21:08.922Z,28.37
2022-11-04T01:23:36.404Z,23.40
2022-11-04T01:26:12.944Z,25.13
2022-11-04T01:28:39.844Z,21.33
2022-11-04T01:31:21.549Z,21.00
2022-11-04T01:33:50.081Z,20.57
2022-11-04T01:36:17.651Z,22.67
2022-11-04T01:38:44.770Z,26.47
2022-11-04T01:41:25.681Z,28.70
2022-11-04T01:44:00.357Z,21.90
2022-11-04T01:46:43.944Z,20.83
2022-11-04T01:49:26.681Z,26.17
2022-11-04T01:52:01.474Z,23.50
2022-11-04T01:54:29.667Z,22.17
2022-11-04T01:56:58.096Z,22.73
2022-11-04T01:59:35.607Z,23.30
2022-11-04T02:02:03.731Z,22.13
2022-11-04T02:04:31.819Z,21.90
2022-11-04T02:07:07.114Z,25.57
2022-11-04T02:09:36.070Z,27.47
2022-11-04T02:12:21.879Z,22.00
2022-11-04T02:14:50.681Z,23.97
2022-11-04T02:17:29.841Z,24.67
2022-11-04T02:20:17.309Z,25.93
2022-11-04T02:23:26.411Z,23.23
2022-11-04T02:26:39.060Z,21.00
2022-11-04T02:29:24.022Z,28.30
2022-11-04T02:32:24.699Z,25.07
2022-11-04T02:35:09.626Z,25.67
2022-11-04T02:38:01.371Z,26.10
2022-11-04T02:40:34.410Z,19.00
2022-11-04T02:43:42.929Z,25.93
2022-11-04T02:46:22.224Z,26.57
2022-11-04T02:49:15.796Z,23.33
2022-11-04T02:51:47.716Z,22.00
2022-11-04T02:54:24.337Z,23.73
2022-11-04T02:56:56.303Z,26.23
2022-11-04T02:59:36.724Z,22.63
2022-11-04T03:02:08.395Z,28.53
2022-11-04T03:04:42.281Z,27.07
2022-11-04T03:07:12.855Z,24.37
2022-11-04T03:09:47.800Z,23.73
2022-11-04T03:12:20.460Z,22.80
2022-11-04T03:14:52.595Z,24.67
2022-11-04T03:17:47.072Z,20.07
2022-11-04T03:20:20.821Z,26.60
2022-11-04T03:22:47.788Z,21.63
2022-11-04T03:25:15.246Z,23.03
2022-11-04T03:28:20.163Z,25.63
2022-11-04T03:30:49.543Z,22.70
2022-11-04T03:33:27.340Z,20.13
2022-11-04T03:35:54.320Z,22.43
2022-11-04T03:38:22.981Z,21.47
2022-11-04T03:40:51.118Z,19.97
2022-11-04T03:43:27.398Z,20.60
2022-11-04T03:45:55.541Z,19.23
2022-11-04T03:48:23.386Z,24.83
2022-11-04T03:50:51.223Z,21.20
2022-11-04T03:53:23.055Z,25.53
2022-11-04T03:56:25.188Z,24.03
2022-11-04T03:59:08.165Z,18.80
2022-11-04T04:01:56.956Z,19.63
2022-11-04T04:04:35.139Z,23.80
2022-11-04T04:07:18.198Z,17.27
2022-11-04T04:09:54.022Z,18.10
2022-11-04T04:12:31.424Z,24.07
2022-11-04T04:15:13.730Z,22.67
2022-11-04T04:17:52.952Z,21.40
2022-11-04T04:20:23.649Z,18.70
2022-11-04T04:23:30.192Z,17.40
2022-11-04T04:26:21.419Z,21.63
2022-11-04T04:28:49.571Z,19.47
2022-11-04T04:31:37.426Z,16.30
2022-11-04T04:34:04.508Z,18.30
2022-11-04T04:36:38.298Z,20.57
2022-11-04T04:39:28.205Z,19.00
2022-11-04T04:42:14.087Z,20.23
2022-11-04T04:45:01.790Z,16.93
2022-11-04T04:47:45.945Z,25.17
2022-11-04T04:50:17.093Z,18.73
2022-11-04T04:52:51.404Z,20.00
2022-11-04T04:55:18.981Z,19.47
2022-11-04T04:57:46.194Z,18.73
2022-11-04T05:00:18.203Z,19.97
2022-11-04T05:02:45.598Z,16.00
2022-11-04T05:05:13.509Z,23.40
2022-11-04T05:07:40.481Z,19.33
2022-11-04T05:10:10.532Z,18.93
2022-11-04T05:12:59.763Z,18.77
2022-11-04T05:15:27.246Z,19.67
2022-11-04T05:17:56.707Z,21.20
2022-11-04T05:20:24.779Z,19.83
2022-11-04T05:22:52.040Z,23.07
2022-11-04T05:25:18.916Z,18.33
2022-11-04T05:27:45.811Z,20.40
2022-11-04T05:30:12.804Z,17.80
2022-11-04T05:32:39.676Z,15.50
2022-11-04T05:35:07.086Z,17.67
2022-11-04T05:37:33.965Z,17.67
2022-11-04T05:40:00.867Z,22.30
2022-11-04T05:42:29.561Z,19.90
2022-11-04T05:44:56.452Z,16.60
2022-11-04T05:47:23.756Z,18.53
2022-11-04T05:49:50.652Z,17.37
2022-11-04T05:52:17.527Z,18.87
2022-11-04T05:54:44.469Z,16.80
2022-11-04T05:57:11.536Z,19.27
2022-11-04T05:59:38.516Z,14.30
2022-11-04T06:02:05.552Z,13.37
2022-11-04T06:04:32.569Z,20.33
2022-11-04T06:06:59.771Z,22.27
2022-11-04T06:09:39.152Z,17.23
2022-11-04T06:12:15.076Z,17.40
2022-11-04T06:14:43.482Z,19.80
2022-11-04T06:17:16.286Z,14.60
2022-11-04T06:19:43.458Z,18.50
2022-11-04T06:22:12.974Z,16.80
2022-11-04T06:24:40.161Z,17.43
2022-11-04T06:27:07.823Z,19.57
2022-11-04T06:29:36.574Z,19.87
2022-11-04T06:32:03.567Z,20.53
2022-11-04T06:34:30.502Z,19.20
2022-11-04T06:36:57.386Z,20.73
2022-11-04T06:39:24.267Z,20.33
2022-11-04T06:41:51.868Z,78.13
2022-11-04T06:44:19.891Z,16.50
2022-11-04T06:46:46.807Z,17.53
2022-11-04T06:49:18.161Z,18.83
2022-11-04T06:51:45.142Z,22.97
2022-11-04T06:54:12.542Z,18.70
2022-11-04T06:56:40.106Z,18.50
2022-11-04T06:59:07.739Z,16.93
2022-11-04T07:01:36.827Z,16.40
2022-11-04T07:04:05.470Z,21.60
2022-11-04T07:06:32.399Z,17.30
2022-11-04T07:09:01.780Z,14.87
2022-11-04T07:11:32.357Z,15.97
2022-11-04T07:13:59.349Z,19.77
2022-11-04T07:16:27.335Z,15.63
2022-11-04T07:18:55.622Z,16.87
2022-11-04T07:21:23.427Z,23.80
2022-11-04T07:23:50.306Z,25.50
2022-11-04T07:26:17.310Z,21.47
2022-11-04T07:28:44.372Z,16.77
2022-11-04T07:31:13.606Z,17.73
2022-11-04T07:33:40.592Z,17.73
2022-11-04T07:36:12.059Z,17.93
2022-11-04T07:38:38.980Z,19.03
2022-11-04T07:41:06.084Z,17.87
2022-11-04T07:43:32.977Z,18.83
2022-11-04T07:46:11.874Z,18.23
2022-11-04T07:48:39.540Z,13.33
2022-11-04T07:51:09.055Z,19.27
2022-11-04T07:53:36.047Z,22.03
2022-11-04T07:56:08.665Z,16.20
2022-11-04T07:58:35.605Z,14.97
2022-11-04T08:01:07.322Z,19.70
2022-11-04T08:03:35.548Z,19.63
2022-11-04T08:06:05.726Z,16.30
2022-11-04T08:08:32.684Z,18.33
2022-11-04T08:11:11.507Z,19.67
2022-11-04T08:13:41.715Z,14.83
2022-11-04T08:16:13.856Z,20.43
2022-11-04T08:18:42.467Z,18.57
2022-11-04T08:21:10.760Z,18.73
2022-11-04T08:23:38.693Z,21.43
2022-11-04T08:26:16.708Z,22.92
2022-11-04T08:28:43.677Z,17.83
2022-11-04T08:31:24.239Z,18.33
2022-11-04T08:33:52.060Z,23.53
2022-11-04T08:36:23.546Z,15.43
2022-11-04T08:38:51.027Z,20.20
2022-11-04T08:41:23.720Z,20.60
2022-11-04T08:43:50.618Z,18.53
2022-11-04T08:46:18.581Z,16.87
2022-11-04T08:48:46.358Z,21.33
2022-11-04T08:51:26.540Z,20.63
2022-11-04T08:53:54.065Z,18.20
2022-11-04T08:56:28.373Z,20.13
2022-11-04T08:58:58.325Z,14.77
2022-11-04T09:01:30.020Z,18.47
2022-11-04T09:04:01.320Z,20.67
2022-11-04T09:06:34.377Z,18.53
2022-11-04T09:09:04.535Z,23.67
2022-11-04T09:11:38.413Z,20.40
2022-11-04T09:14:06.362Z,16.88
2022-11-04T09:16:35.415Z,18.87
2022-11-04T09:19:03.130Z,16.20
2022-11-04T09:21:30.055Z,17.73
2022-11-04T09:23:57.301Z,15.30
2022-11-04T09:26:25.784Z,18.13
2022-11-04T09:28:57.959Z,20.10
2022-11-04T09:31:27.231Z,18.80
2022-11-04T09:33:55.577Z,18.45
2022-11-04T09:36:23.156Z,20.15
2022-11-04T09:38:50.140Z,21.90
2022-11-04T09:41:41.048Z,19.60
2022-11-04T09:44:27.257Z,19.17
2022-11-04T09:47:02.043Z,22.73
2022-11-04T09:49:36.803Z,20.27
2022-11-04T09:52:16.994Z,19.52
2022-11-04T09:54:55.145Z,18.83
2022-11-04T09:57:22.165Z,21.27
2022-11-04T09:59:49.380Z,18.55
2022-11-04T10:02:43.119Z,32.85
2022-11-04T10:05:40.573Z,17.87
2022-11-04T10:08:30.725Z,17.03
2022-11-04T10:11:32.003Z,16.50
2022-11-04T10:14:17.152Z,19.25
2022-11-04T10:17:22.472Z,17.40
2022-11-04T10:19:55.424Z,21.70
2022-11-04T10:22:40.020Z,16.15
2022-11-04T10:25:22.775Z,16.13
2022-11-04T10:27:59.358Z,18.33
2022-11-04T10:30:26.897Z,20.02
2022-11-04T10:33:17.443Z,18.30
2022-11-04T10:35:51.832Z,21.05
2022-11-04T10:38:29.682Z,20.23
2022-11-04T10:40:57.209Z,13.52
2022-11-04T10:43:33.414Z,23.77
2022-11-04T10:46:38.862Z,15.80
2022-11-04T10:50:21.973Z,16.42
2022-11-04T10:52:38.934Z,20.02
2022-11-04T10:55:47.708Z,17.63
2022-11-04T10:58:26.078Z,18.75
2022-11-04T11:00:54.594Z,19.95
2022-11-04T11:03:34.479Z,16.20
2022-11-04T11:06:28.271Z,19.42
2022-11-04T11:09:13.174Z,17.77
2022-11-04T11:11:50.805Z,15.98
2022-11-04T11:14:30.359Z,22.98
2022-11-04T11:17:14.306Z,22.70
2022-11-04T11:20:14.856Z,16.48
2022-11-04T11:22:44.916Z,17.27
2022-11-04T11:25:30.797Z,15.45
2022-11-04T11:28:06.752Z,16.75
2022-11-04T11:30:45.906Z,17.33
2022-11-04T11:33:33.695Z,14.35
2022-11-04T11:36:11.937Z,18.58
2022-11-04T11:38:53.004Z,25.05
2022-11-04T11:41:25.556Z,14.57
2022-11-04T11:43:55.985Z,16.83
2022-11-04T11:46:26.328Z,15.23
2022-11-04T11:49:01.057Z,15.00
2022-11-04T11:51:35.832Z,19.38
2022-11-04T11:54:29.647Z,14.20
2022-11-04T11:57:13.236Z,17.40
2022-11-04T12:03:21.086Z,16.35
2022-11-04T12:09:23.165Z,18.48
2022-11-04T12:12:04.396Z,18.58
2022-11-04T12:15:07.186Z,21.48
2022-11-04T12:18:02.147Z,27.17
2022-11-04T12:20:47.593Z,21.38
2022-11-04T12:23:39.700Z,20.83
2022-11-04T12:26:40.356Z,15.88
2022-11-04T12:29:52.293Z,18.27
2022-11-04T12:32:35.306Z,16.02
2022-11-04T12:35:42.440Z,19.38
2022-11-04T12:38:21.219Z,17.42
2022-11-04T12:41:52.771Z,15.43
2022-11-04T12:44:45.190Z,14.65
2022-11-04T12:47:35.881Z,20.45
2022-11-04T12:50:35.680Z,15.93
2022-11-04T12:53:43.170Z,17.95
2022-11-04T12:56:12.833Z,16.15
2022-11-04T12:59:21.959Z,18.75
2022-11-04T13:01:56.514Z,16.42
2022-11-04T13:04:26.922Z,18.60
2022-11-04T13:07:01.232Z,20.10
2022-11-04T13:09:45.010Z,12.85
2022-11-04T13:12:30.328Z,13.45
2022-11-04T13:15:05.568Z,13.55
2022-11-04T13:17:39.742Z,15.65
2022-11-04T13:20:29.695Z,14.93
2022-11-04T13:23:03.521Z,18.95
2022-11-04T13:25:35.124Z,14.93
2022-11-04T13:28:03.494Z,14.43
2022-11-04T13:30:30.272Z,17.48
2022-11-04T13:33:21.484Z,18.33
2022-11-04T13:36:12.402Z,16.50
2022-11-04T13:38:45.032Z,13.98
2022-11-04T13:41:35.205Z,18.33
2022-11-04T13:44:10.876Z,17.23
2022-11-04T13:46:37.781Z,20.63
2022-11-04T13:49:32.436Z,16.17
2022-11-04T13:52:11.049Z,23.55
2022-11-04T13:54:57.229Z,21.23
2022-11-04T13:57:27.709Z,20.13
2022-11-04T14:00:13.096Z,20.13
2022-11-04T14:03:13.896Z,17.75
2022-11-04T14:05:40.828Z,19.10
2022-11-04T14:08:17.250Z,14.10
2022-11-04T14:10:49.865Z,20.45
2022-11-04T14:13:33.376Z,18.75
2022-11-04T14:16:11.068Z,20.27
2022-11-04T14:18:49.269Z,19.02
2022-11-04T14:21:26.015Z,25.75
2022-11-04T14:24:00.347Z,19.85
2022-11-04T14:26:43.380Z,29.63
2022-11-04T14:29:23.796Z,23.33
2022-11-04T14:31:54.025Z,33.33
2022-11-04T14:34:34.572Z,28.83
2022-11-04T14:37:06.862Z,22.23
2022-11-04T14:39:39.185Z,19.23
2022-11-04T14:42:09.834Z,25.17
2022-11-04T14:44:48.003Z,25.90
2022-11-04T14:47:27.673Z,24.67
2022-11-04T14:50:04.633Z,23.48
2022-11-04T14:52:47.559Z,24.58
2022-11-04T14:55:32.275Z,27.65
2022-11-04T14:58:28.184Z,22.48
2022-11-04T15:01:02.833Z,18.85
2022-11-04T15:06:53.505Z,19.52
2022-11-04T15:09:35.322Z,18.25
2022-11-04T15:12:28.274Z,23.92
2022-11-04T15:14:56.136Z,23.92
2022-11-04T15:17:27.727Z,20.75
2022-11-04T15:19:58.061Z,22.30
2022-11-04T15:22:25.287Z,26.67
2022-11-04T15:24:53.075Z,20.38
2022-11-04T15:27:28.560Z,26.70
2022-11-04T15:30:03.029Z,27.88
2022-11-04T15:32:30.655Z,27.10
2022-11-04T15:34:58.211Z,29.02
2022-11-04T15:37:28.953Z,22.65
2022-11-04T15:39:57.898Z,23.42
2022-11-04T15:42:40.119Z,20.42
2022-11-04T15:45:36.525Z,26.30
2022-11-04T15:48:25.777Z,24.75
2022-11-04T15:51:12.526Z,25.38
2022-11-04T15:54:15.674Z,22.98
2022-11-04T15:56:53.909Z,24.13
2022-11-04T15:59:28.966Z,28.77
2022-11-04T16:01:56.129Z,36.08
2022-11-04T16:04:27.076Z,27.05
2022-11-04T16:07:11.060Z,27.83
2022-11-04T16:09:52.367Z,26.35
2022-11-04T16:12:28.086Z,27.60
2022-11-04T16:14:58.242Z,28.58
2022-11-04T16:17:26.638Z,28.48
2022-11-04T16:20:01.575Z,28.52
2022-11-04T16:22:38.821Z,33.25
2022-11-04T16:25:11.062Z,30.20
2022-11-04T16:27:38.541Z,35.03
2022-11-04T16:30:23.283Z,34.13
2022-11-04T16:32:56.629Z,33.25
2022-11-04T16:35:28.171Z,34.55
2022-11-04T16:37:56.426Z,32.72
2022-11-04T16:40:24.906Z,32.42
2022-11-04T16:42:53.743Z,36.28
2022-11-04T16:45:34.664Z,36.72
2022-11-04T16:48:02.040Z,40.10
2022-11-04T16:50:29.395Z,38.63
2022-11-04T16:52:56.371Z,36.55
2022-11-04T16:55:24.487Z,34.88
2022-11-04T16:58:01.291Z,38.30
2022-11-04T17:00:34.227Z,36.22
2022-11-04T17:03:08.885Z,48.92
2022-11-04T17:05:35.990Z,44.80
2022-11-04T17:08:06.121Z,47.38
2022-11-04T17:10:35.805Z,45.03
2022-11-04T17:13:02.750Z,41.33
2022-11-04T17:15:29.724Z,44.92
2022-11-04T17:17:56.761Z,45.80
2022-11-04T17:20:23.764Z,53.47
2022-11-04T17:22:50.994Z,58.20
2022-11-04T17:25:24.093Z,43.85
2022-11-04T17:27:51.431Z,42.88
2022-11-04T17:30:23.607Z,36.65
2022-11-04T17:32:57.184Z,36.67
2022-11-04T17:35:24.432Z,41.83
2022-11-04T17:37:54.945Z,41.47
2022-11-04T17:40:24.068Z,30.98
2022-11-04T17:43:12.856Z,34.63
2022-11-04T17:45:44.269Z,24.98
2022-11-04T17:48:14.101Z,33.88
2022-11-04T17:50:42.380Z,36.78
2022-11-04T17:53:09.887Z,30.70
2022-11-04T17:55:39.964Z,28.20
2022-11-04T17:58:06.955Z,33.55
2022-11-04T18:00:33.926Z,36.47
2022-11-04T18:03:00.869Z,35.28
2022-11-04T18:05:27.758Z,35.13
2022-11-04T18:07:56.566Z,34.67
2022-11-04T18:10:23.567Z,48.80
2022-11-04T18:12:50.916Z,59.45
2022-11-04T18:15:17.926Z,38.47
2022-11-04T18:17:45.804Z,55.90
2022-11-04T18:20:17.342Z,69.82
2022-11-04T18:22:44.783Z,52.60
2022-11-04T18:25:12.219Z,39.35
2022-11-04T18:27:39.289Z,38.08
2022-11-04T18:30:07.209Z,38.33
2022-11-04T18:32:34.114Z,37.28
2022-11-04T18:35:01.025Z,36.75
2022-11-04T18:37:29.377Z,35.35
2022-11-04T18:39:58.617Z,39.90
2022-11-04T18:42:25.668Z,51.28
2022-11-04T18:44:52.732Z,46.42
2022-11-04T18:47:20.245Z,49.45
2022-11-04T18:49:47.897Z,39.55
2022-11-04T18:52:14.982Z,39.45
2022-11-04T18:54:45.331Z,51.05
2022-11-04T18:57:12.820Z,40.80
2022-11-04T18:59:39.751Z,35.25
2022-11-04T19:02:07.260Z,43.33
2022-11-04T19:04:34.250Z,45.38
2022-11-04T19:07:01.805Z,40.92
2022-11-04T19:12:35.467Z,34.72
2022-11-04T19:15:04.584Z,39.30
2022-11-04T19:17:31.716Z,34.00
2022-11-04T19:19:58.744Z,36.50
2022-11-04T19:22:28.734Z,38.22
2022-11-04T19:24:55.757Z,44.92
2022-11-04T19:27:24.978Z,65.68
2022-11-04T19:29:52.733Z,37.80
2022-11-04T19:32:19.608Z,35.90
2022-11-04T19:34:46.673Z,33.65
2022-11-04T19:37:14.054Z,34.72
2022-11-04T19:39:41.304Z,36.83
2022-11-04T19:42:28.770Z,33.97
2022-11-04T19:44:55.801Z,30.83
2022-11-04T19:47:22.967Z,34.28
2022-11-04T19:49:49.838Z,31.55
2022-11-04T19:52:16.878Z,34.08
2022-11-04T19:54:43.767Z,33.85
2022-11-04T19:57:10.647Z,38.58
2022-11-04T19:59:37.552Z,34.85
2022-11-04T20:02:04.608Z,37.67
2022-11-04T20:04:31.576Z,36.45
2022-11-04T20:06:58.522Z,37.28
2022-11-04T20:09:26.135Z,32.25
2022-11-04T20:12:11.438Z,32.90
2022-11-04T20:14:38.353Z,35.65
2022-11-04T20:17:08.420Z,29.45
2022-11-04T20:19:35.440Z,34.20
2022-11-04T20:22:02.924Z,41.38
2022-11-04T20:24:30.235Z,28.30
2022-11-04T20:26:57.192Z,29.85
2022-11-04T20:29:24.144Z,30.98
2022-11-04T20:31:51.029Z,30.85
2022-11-04T20:34:17.936Z,26.13
2022-11-04T20:36:44.830Z,31.63
2022-11-04T20:39:17.666Z,31.58
2022-11-04T20:41:45.206Z,38.00
2022-11-04T20:44:14.529Z,38.33
2022-11-04T20:46:42.923Z,34.00
2022-11-04T20:49:11.067Z,40.05
2022-11-04T20:51:48.731Z,33.13
2022-11-04T20:54:17.311Z,39.28
2022-11-04T20:56:45.417Z,46.08
2022-11-04T20:59:13.941Z,40.28
2022-11-04T21:01:44.392Z,37.08
2022-11-04T21:04:15.187Z,34.55
2022-11-04T21:06:42.742Z,37.35
2022-11-04T21:09:12.822Z,32.55
2022-11-04T21:11:40.506Z,29.08
2022-11-04T21:14:08.814Z,30.23
2022-11-04T21:16:36.254Z,25.95
2022-11-04T21:19:04.700Z,29.73
2022-11-04T21:21:33.264Z,28.80
2022-11-04T21:24:03.400Z,27.85
2022-11-04T21:26:34.231Z,31.15
2022-11-04T21:29:06.977Z,32.72
2022-11-04T21:31:35.940Z,35.75
2022-11-04T21:34:03.791Z,37.08
2022-11-04T21:36:31.281Z,41.47
2022-11-04T21:38:59.159Z,38.63
2022-11-04T21:41:29.624Z,48.67
2022-11-04T21:44:02.683Z,29.40
2022-11-04T21:46:32.460Z,32.63
2022-11-04T21:48:59.602Z,32.10
2022-11-04T21:51:30.429Z,26.23
2022-11-04T21:54:00.493Z,30.77
2022-11-04T21:56:33.145Z,38.55
2022-11-04T21:59:00.587Z,28.98
2022-11-04T22:01:29.669Z,30.67
2022-11-04T22:04:00.043Z,39.20
2022-11-04T22:06:35.132Z,31.13
2022-11-04T22:09:06.853Z,29.52
2022-11-04T22:11:39.662Z,27.65
2022-11-04T22:14:08.482Z,26.77
2022-11-04T22:16:39.028Z,24.05
2022-11-04T22:19:08.838Z,27.80
2022-11-04T22:21:40.442Z,31.35
2022-11-04T22:24:10.873Z,24.77
2022-11-04T22:26:38.074Z,27.92
2022-11-04T22:29:05.074Z,28.42
2022-11-04T22:31:35.536Z,24.08
2022-11-04T22:34:04.042Z,25.40
2022-11-04T22:36:32.679Z,24.00
2022-11-04T22:38:59.796Z,27.80
2022-11-04T22:41:30.812Z,26.40
2022-11-04T22:43:58.417Z,24.30
2022-11-04T22:46:29.560Z,24.60
2022-11-04T22:48:56.795Z,22.60
2022-11-04T22:51:23.959Z,26.70
2022-11-04T22:53:58.884Z,27.48
2022-11-04T22:56:28.481Z,25.20
2022-11-04T22:58:55.457Z,26.55
2022-11-04T23:01:22.759Z,28.95
2022-11-04T23:03:52.079Z,24.95
2022-11-04T23:06:19.690Z,25.02
2022-11-04T23:08:46.661Z,27.98
2022-11-04T23:11:38.465Z,30.88
2022-11-04T23:14:23.888Z,28.73
2022-11-04T23:17:10.535Z,25.75
2022-11-04T23:19:39.064Z,30.00
2022-11-04T23:22:26.030Z,29.17
2022-11-04T23:25:06.261Z,27.33
2022-11-04T23:27:54.327Z,24.23
2022-11-04T23:30:21.812Z,26.65
2022-11-04T23:32:49.780Z,27.55
2022-11-04T23:35:36.346Z,28.42
2022-11-04T23:38:03.732Z,28.88
2022-11-04T23:40:32.191Z,34.25
2022-11-04T23:42:59.093Z,29.75
2022-11-04T23:45:44.371Z,26.40
2022-11-04T23:48:30.926Z,28.00
2022-11-04T23:51:18.726Z,27.73
2022-11-04T23:54:05.136Z,34.28
2022-11-04T23:56:50.974Z,22.45
2022-11-04T23:59:37.363Z,27.42
